Aviation Digital Data Service (ADDS)

Output produced by TAFs form (0655 UTC 18 December 2017)
found at http://aviationweather.gov/adds/tafs/
 
KAEG 180525Z 1806/1906 19005KT P6SM SKC 
     FM180900 33003KT P6SM FEW015 FEW070 
     FM181500 33004KT P6SM SCT070 
     FM182200 25006KT P6SM FEW070